Canmore, Canada
Current Conditions -  °F | °C
As of 3:00 AM on Sunday 25 Jan 2015 (Local Time) from CYBW Reporting Station
Broken Clouds Broken Clouds  
Wind Chill: 34°   Ceiling: 13000
Heat Index: 41°   Visibility: 9mi
Dew Point: 30°   Wind: 13mph
Humidity: 65%   Direction: 220°SW
Pressure: 29.84"   Gusts: NA
Location:  51.09°N, 115.36°W
Report Text: CYBW 251000Z AUTO 22011KT 9SM BKN130 BKN150 05/M01 A2984 RMK SLP130
Loading
Personal Weather Stations






























Interactive Weather Map New forecast layout! Learn more

10-Day Weather Forecast

Advertisements
Track Severe Weather on mobile